sensor_id;sensor_type;location;lat;lon;timestamp;P1;durP1;ratioP1;P2;durP2;ratioP2
19002;SDS011;9634;51.040;13.794;2022-11-20T00:04:50;35.00;;;15.07;;
19002;SDS011;9634;51.040;13.794;2022-11-20T00:09:52;32.60;;;13.90;;
19002;SDS011;9634;51.040;13.794;2022-11-20T00:14:56;33.97;;;14.30;;
19002;SDS011;9634;51.040;13.794;2022-11-20T00:19:58;34.90;;;14.87;;
19002;SDS011;9634;51.040;13.794;2022-11-20T00:25:00;34.33;;;14.80;;
19002;SDS011;9634;51.040;13.794;2022-11-20T00:30:04;34.80;;;14.10;;
19002;SDS011;9634;51.040;13.794;2022-11-20T00:35:08;29.90;;;13.77;;
19002;SDS011;9634;51.040;13.794;2022-11-20T00:40:10;30.83;;;13.47;;
19002;SDS011;9634;51.040;13.794;2022-11-20T00:45:15;30.27;;;14.23;;
19002;SDS011;9634;51.040;13.794;2022-11-20T00:50:17;32.90;;;13.53;;
19002;SDS011;9634;51.040;13.794;2022-11-20T00:55:19;28.93;;;12.50;;
19002;SDS011;9634;51.040;13.794;2022-11-20T01:00:23;24.73;;;11.13;;
19002;SDS011;9634;51.040;13.794;2022-11-20T01:05:25;29.57;;;11.57;;
19002;SDS011;9634;51.040;13.794;2022-11-20T01:10:28;25.13;;;11.40;;
19002;SDS011;9634;51.040;13.794;2022-11-20T01:15:32;26.63;;;12.47;;
19002;SDS011;9634;51.040;13.794;2022-11-20T01:20:36;26.33;;;11.80;;
19002;SDS011;9634;51.040;13.794;2022-11-20T01:25:39;29.27;;;12.30;;
19002;SDS011;9634;51.040;13.794;2022-11-20T01:30:42;26.30;;;11.83;;
19002;SDS011;9634;51.040;13.794;2022-11-20T01:35:45;27.50;;;12.20;;
19002;SDS011;9634;51.040;13.794;2022-11-20T01:40:53;30.37;;;11.87;;
19002;SDS011;9634;51.040;13.794;2022-11-20T01:45:59;28.30;;;11.53;;
19002;SDS011;9634;51.040;13.794;2022-11-20T01:51:10;26.97;;;12.63;;
19002;SDS011;9634;51.040;13.794;2022-11-20T01:56:17;25.47;;;11.77;;
19002;SDS011;9634;51.040;13.794;2022-11-20T02:01:21;24.63;;;10.93;;
19002;SDS011;9634;51.040;13.794;2022-11-20T02:06:25;27.67;;;11.60;;
19002;SDS011;9634;51.040;13.794;2022-11-20T02:11:30;25.83;;;12.23;;
19002;SDS011;9634;51.040;13.794;2022-11-20T02:16:35;29.90;;;12.00;;
19002;SDS011;9634;51.040;13.794;2022-11-20T02:21:42;26.43;;;11.40;;
19002;SDS011;9634;51.040;13.794;2022-11-20T02:26:51;25.67;;;11.47;;
19002;SDS011;9634;51.040;13.794;2022-11-20T02:31:57;26.17;;;11.33;;
19002;SDS011;9634;51.040;13.794;2022-11-20T02:37:02;29.87;;;11.63;;
19002;SDS011;9634;51.040;13.794;2022-11-20T02:42:05;27.67;;;11.60;;
19002;SDS011;9634;51.040;13.794;2022-11-20T02:47:08;22.53;;;10.83;;
19002;SDS011;9634;51.040;13.794;2022-11-20T02:52:10;27.67;;;11.50;;
19002;SDS011;9634;51.040;13.794;2022-11-20T02:57:14;26.47;;;11.40;;
19002;SDS011;9634;51.040;13.794;2022-11-20T03:02:16;26.23;;;10.97;;
19002;SDS011;9634;51.040;13.794;2022-11-20T03:07:18;28.10;;;11.37;;
19002;SDS011;9634;51.040;13.794;2022-11-20T03:12:22;28.90;;;11.50;;
19002;SDS011;9634;51.040;13.794;2022-11-20T03:17:24;25.00;;;10.57;;
19002;SDS011;9634;51.040;13.794;2022-11-20T03:22:28;28.67;;;11.07;;
19002;SDS011;9634;51.040;13.794;2022-11-20T03:27:33;22.93;;;9.50;;
19002;SDS011;9634;51.040;13.794;2022-11-20T03:32:35;28.07;;;11.07;;
19002;SDS011;9634;51.040;13.794;2022-11-20T03:37:37;29.90;;;11.57;;
19002;SDS011;9634;51.040;13.794;2022-11-20T03:42:42;24.93;;;10.73;;
19002;SDS011;9634;51.040;13.794;2022-11-20T03:47:47;26.13;;;10.23;;
19002;SDS011;9634;51.040;13.794;2022-11-20T03:52:49;23.83;;;10.00;;
19002;SDS011;9634;51.040;13.794;2022-11-20T03:57:53;23.53;;;9.60;;
19002;SDS011;9634;51.040;13.794;2022-11-20T04:02:57;20.73;;;9.60;;
19002;SDS011;9634;51.040;13.794;2022-11-20T04:07:59;23.47;;;9.77;;
19002;SDS011;9634;51.040;13.794;2022-11-20T04:13:03;24.30;;;9.77;;
19002;SDS011;9634;51.040;13.794;2022-11-20T04:18:05;21.33;;;9.67;;
19002;SDS011;9634;51.040;13.794;2022-11-20T04:23:08;23.47;;;9.37;;
19002;SDS011;9634;51.040;13.794;2022-11-20T04:28:11;24.40;;;10.73;;
19002;SDS011;9634;51.040;13.794;2022-11-20T04:33:13;24.30;;;10.43;;
19002;SDS011;9634;51.040;13.794;2022-11-20T04:38:16;23.87;;;10.80;;
19002;SDS011;9634;51.040;13.794;2022-11-20T04:43:19;23.87;;;9.63;;
19002;SDS011;9634;51.040;13.794;2022-11-20T04:48:22;25.90;;;10.83;;
19002;SDS011;9634;51.040;13.794;2022-11-20T04:53:24;21.53;;;9.13;;
19002;SDS011;9634;51.040;13.794;2022-11-20T04:58:28;22.83;;;8.77;;
19002;SDS011;9634;51.040;13.794;2022-11-20T05:03:30;25.63;;;10.37;;
19002;SDS011;9634;51.040;13.794;2022-11-20T05:08:33;24.63;;;10.30;;
19002;SDS011;9634;51.040;13.794;2022-11-20T05:13:37;29.67;;;11.60;;
19002;SDS011;9634;51.040;13.794;2022-11-20T05:18:40;26.47;;;10.70;;
19002;SDS011;9634;51.040;13.794;2022-11-20T05:23:43;26.93;;;11.37;;
19002;SDS011;9634;51.040;13.794;2022-11-20T05:28:47;27.13;;;11.57;;
19002;SDS011;9634;51.040;13.794;2022-11-20T05:33:50;27.43;;;11.40;;
19002;SDS011;9634;51.040;13.794;2022-11-20T05:38:52;25.27;;;10.90;;
19002;SDS011;9634;51.040;13.794;2022-11-20T05:43:56;26.63;;;11.53;;
19002;SDS011;9634;51.040;13.794;2022-11-20T05:48:59;24.43;;;10.23;;
19002;SDS011;9634;51.040;13.794;2022-11-20T05:54:01;28.63;;;11.00;;
19002;SDS011;9634;51.040;13.794;2022-11-20T05:59:05;24.73;;;11.20;;
19002;SDS011;9634;51.040;13.794;2022-11-20T06:04:07;29.67;;;11.23;;
19002;SDS011;9634;51.040;13.794;2022-11-20T06:09:09;26.63;;;10.70;;
19002;SDS011;9634;51.040;13.794;2022-11-20T06:14:13;26.27;;;9.80;;
19002;SDS011;9634;51.040;13.794;2022-11-20T06:19:15;24.30;;;9.93;;
19002;SDS011;9634;51.040;13.794;2022-11-20T06:24:18;24.73;;;9.20;;
19002;SDS011;9634;51.040;13.794;2022-11-20T06:29:22;25.80;;;10.80;;
19002;SDS011;9634;51.040;13.794;2022-11-20T06:34:24;26.50;;;10.77;;
19002;SDS011;9634;51.040;13.794;2022-11-20T06:39:26;24.80;;;10.47;;
19002;SDS011;9634;51.040;13.794;2022-11-20T06:44:30;20.97;;;9.13;;
19002;SDS011;9634;51.040;13.794;2022-11-20T06:49:33;25.97;;;10.43;;
19002;SDS011;9634;51.040;13.794;2022-11-20T06:54:37;25.43;;;10.60;;
19002;SDS011;9634;51.040;13.794;2022-11-20T06:59:40;28.40;;;10.50;;
19002;SDS011;9634;51.040;13.794;2022-11-20T07:04:43;26.73;;;11.03;;
19002;SDS011;9634;51.040;13.794;2022-11-20T07:09:45;32.93;;;12.90;;
19002;SDS011;9634;51.040;13.794;2022-11-20T07:14:48;28.37;;;11.03;;
19002;SDS011;9634;51.040;13.794;2022-11-20T07:19:51;27.77;;;11.63;;
19002;SDS011;9634;51.040;13.794;2022-11-20T07:24:53;31.37;;;12.47;;
19002;SDS011;9634;51.040;13.794;2022-11-20T07:29:56;30.63;;;12.47;;
19002;SDS011;9634;51.040;13.794;2022-11-20T07:34:59;28.23;;;12.43;;
19002;SDS011;9634;51.040;13.794;2022-11-20T07:40:01;27.70;;;12.30;;
19002;SDS011;9634;51.040;13.794;2022-11-20T07:45:06;35.20;;;14.00;;
19002;SDS011;9634;51.040;13.794;2022-11-20T07:50:08;34.33;;;13.37;;
19002;SDS011;9634;51.040;13.794;2022-11-20T07:55:11;30.60;;;13.80;;
19002;SDS011;9634;51.040;13.794;2022-11-20T08:00:16;31.83;;;13.87;;
19002;SDS011;9634;51.040;13.794;2022-11-20T08:05:18;30.63;;;14.57;;
19002;SDS011;9634;51.040;13.794;2022-11-20T08:10:20;32.83;;;15.20;;
19002;SDS011;9634;51.040;13.794;2022-11-20T08:15:24;34.60;;;15.00;;
19002;SDS011;9634;51.040;13.794;2022-11-20T08:20:26;38.70;;;16.03;;
19002;SDS011;9634;51.040;13.794;2022-11-20T08:25:29;59.83;;;15.53;;
19002;SDS011;9634;51.040;13.794;2022-11-20T08:30:33;33.93;;;15.07;;
19002;SDS011;9634;51.040;13.794;2022-11-20T08:35:36;31.37;;;15.23;;
19002;SDS011;9634;51.040;13.794;2022-11-20T08:40:39;33.27;;;16.07;;
19002;SDS011;9634;51.040;13.794;2022-11-20T08:45:42;32.00;;;15.93;;
19002;SDS011;9634;51.040;13.794;2022-11-20T08:50:44;30.37;;;15.57;;
19002;SDS011;9634;51.040;13.794;2022-11-20T08:55:47;29.83;;;15.27;;
19002;SDS011;9634;51.040;13.794;2022-11-20T09:00:50;30.03;;;14.40;;
19002;SDS011;9634;51.040;13.794;2022-11-20T09:05:56;31.10;;;15.17;;
19002;SDS011;9634;51.040;13.794;2022-11-20T09:10:59;31.60;;;14.33;;
19002;SDS011;9634;51.040;13.794;2022-11-20T09:16:04;30.53;;;13.77;;
19002;SDS011;9634;51.040;13.794;2022-11-20T09:21:08;28.33;;;13.80;;
19002;SDS011;9634;51.040;13.794;2022-11-20T09:26:13;27.67;;;16.80;;
19002;SDS011;9634;51.040;13.794;2022-11-20T09:31:19;27.47;;;14.70;;
19002;SDS011;9634;51.040;13.794;2022-11-20T09:36:24;25.07;;;13.63;;
19002;SDS011;9634;51.040;13.794;2022-11-20T09:41:31;27.10;;;13.60;;
19002;SDS011;9634;51.040;13.794;2022-11-20T09:46:49;26.57;;;12.43;;
19002;SDS011;9634;51.040;13.794;2022-11-20T09:51:59;20.53;;;13.67;;
19002;SDS011;9634;51.040;13.794;2022-11-20T09:57:05;21.73;;;11.30;;
19002;SDS011;9634;51.040;13.794;2022-11-20T10:02:25;18.57;;;10.70;;
19002;SDS011;9634;51.040;13.794;2022-11-20T10:07:32;22.20;;;10.90;;
19002;SDS011;9634;51.040;13.794;2022-11-20T10:12:43;20.40;;;10.70;;
19002;SDS011;9634;51.040;13.794;2022-11-20T10:18:08;17.90;;;9.73;;
19002;SDS011;9634;51.040;13.794;2022-11-20T10:23:26;15.27;;;8.90;;
19002;SDS011;9634;51.040;13.794;2022-11-20T10:28:42;17.37;;;9.33;;
19002;SDS011;9634;51.040;13.794;2022-11-20T10:33:54;16.65;;;10.90;;
19002;SDS011;9634;51.040;13.794;2022-11-20T10:38:59;18.47;;;10.57;;
19002;SDS011;9634;51.040;13.794;2022-11-20T10:44:09;14.50;;;9.40;;
19002;SDS011;9634;51.040;13.794;2022-11-20T10:49:42;15.77;;;9.60;;
19002;SDS011;9634;51.040;13.794;2022-11-20T10:54:47;14.30;;;9.23;;
19002;SDS011;9634;51.040;13.794;2022-11-20T11:00:00;17.23;;;9.63;;
19002;SDS011;9634;51.040;13.794;2022-11-20T11:05:08;17.20;;;10.00;;
19002;SDS011;9634;51.040;13.794;2022-11-20T11:10:19;15.90;;;9.10;;
19002;SDS011;9634;51.040;13.794;2022-11-20T11:15:27;17.67;;;9.53;;
19002;SDS011;9634;51.040;13.794;2022-11-20T11:20:32;14.80;;;8.80;;
19002;SDS011;9634;51.040;13.794;2022-11-20T11:25:35;16.00;;;9.90;;
19002;SDS011;9634;51.040;13.794;2022-11-20T11:30:42;16.53;;;9.73;;
19002;SDS011;9634;51.040;13.794;2022-11-20T11:35:47;16.00;;;8.60;;
19002;SDS011;9634;51.040;13.794;2022-11-20T11:40:52;16.00;;;8.47;;
19002;SDS011;9634;51.040;13.794;2022-11-20T11:45:56;13.23;;;7.83;;
19002;SDS011;9634;51.040;13.794;2022-11-20T11:51:00;12.10;;;7.90;;
19002;SDS011;9634;51.040;13.794;2022-11-20T11:56:04;12.63;;;7.60;;
19002;SDS011;9634;51.040;13.794;2022-11-20T12:01:12;11.93;;;7.40;;
19002;SDS011;9634;51.040;13.794;2022-11-20T12:06:27;10.27;;;6.83;;
19002;SDS011;9634;51.040;13.794;2022-11-20T12:11:33;9.97;;;5.90;;
19002;SDS011;9634;51.040;13.794;2022-11-20T12:16:41;10.27;;;6.20;;
19002;SDS011;9634;51.040;13.794;2022-11-20T12:21:49;10.10;;;6.67;;
19002;SDS011;9634;51.040;13.794;2022-11-20T12:27:01;9.30;;;5.90;;
19002;SDS011;9634;51.040;13.794;2022-11-20T12:32:37;10.70;;;6.50;;
19002;SDS011;9634;51.040;13.794;2022-11-20T12:38:01;12.20;;;7.10;;
19002;SDS011;9634;51.040;13.794;2022-11-20T12:43:18;19.23;;;7.20;;
19002;SDS011;9634;51.040;13.794;2022-11-20T12:48:43;12.83;;;6.83;;
19002;SDS011;9634;51.040;13.794;2022-11-20T12:54:05;15.13;;;6.90;;
19002;SDS011;9634;51.040;13.794;2022-11-20T12:59:34;12.03;;;5.73;;
19002;SDS011;9634;51.040;13.794;2022-11-20T13:10:23;12.57;;;6.60;;
19002;SDS011;9634;51.040;13.794;2022-11-20T13:15:35;14.23;;;7.23;;
19002;SDS011;9634;51.040;13.794;2022-11-20T13:20:46;13.20;;;6.33;;
19002;SDS011;9634;51.040;13.794;2022-11-20T13:25:52;13.23;;;6.57;;
19002;SDS011;9634;51.040;13.794;2022-11-20T13:31:09;13.90;;;6.83;;
19002;SDS011;9634;51.040;13.794;2022-11-20T13:36:33;13.27;;;6.67;;
19002;SDS011;9634;51.040;13.794;2022-11-20T13:41:38;23.87;;;8.87;;
19002;SDS011;9634;51.040;13.794;2022-11-20T13:46:42;14.33;;;6.70;;
19002;SDS011;9634;51.040;13.794;2022-11-20T13:51:46;11.70;;;6.27;;
19002;SDS011;9634;51.040;13.794;2022-11-20T13:56:56;11.43;;;5.70;;
19002;SDS011;9634;51.040;13.794;2022-11-20T14:02:07;11.53;;;5.93;;
19002;SDS011;9634;51.040;13.794;2022-11-20T14:07:14;11.00;;;5.73;;
19002;SDS011;9634;51.040;13.794;2022-11-20T14:12:19;11.95;;;7.25;;
19002;SDS011;9634;51.040;13.794;2022-11-20T14:17:24;9.60;;;5.10;;
19002;SDS011;9634;51.040;13.794;2022-11-20T14:22:31;10.23;;;4.97;;
19002;SDS011;9634;51.040;13.794;2022-11-20T14:27:35;10.97;;;5.40;;
19002;SDS011;9634;51.040;13.794;2022-11-20T14:32:39;11.40;;;5.23;;
19002;SDS011;9634;51.040;13.794;2022-11-20T14:37:42;12.23;;;5.60;;
19002;SDS011;9634;51.040;13.794;2022-11-20T14:42:46;8.33;;;4.50;;
19002;SDS011;9634;51.040;13.794;2022-11-20T14:47:48;10.47;;;5.40;;
19002;SDS011;9634;51.040;13.794;2022-11-20T14:52:52;12.67;;;6.37;;
19002;SDS011;9634;51.040;13.794;2022-11-20T14:57:58;12.95;;;8.00;;
19002;SDS011;9634;51.040;13.794;2022-11-20T15:03:01;12.20;;;6.67;;
19002;SDS011;9634;51.040;13.794;2022-11-20T15:08:05;15.00;;;6.97;;
19002;SDS011;9634;51.040;13.794;2022-11-20T15:13:12;13.40;;;6.00;;
19002;SDS011;9634;51.040;13.794;2022-11-20T15:18:18;14.37;;;6.73;;
19002;SDS011;9634;51.040;13.794;2022-11-20T15:23:22;12.93;;;7.00;;
19002;SDS011;9634;51.040;13.794;2022-11-20T15:28:29;13.40;;;7.40;;
19002;SDS011;9634;51.040;13.794;2022-11-20T15:33:33;15.27;;;7.40;;
19002;SDS011;9634;51.040;13.794;2022-11-20T15:38:35;15.13;;;7.40;;
19002;SDS011;9634;51.040;13.794;2022-11-20T15:43:39;17.83;;;8.40;;
19002;SDS011;9634;51.040;13.794;2022-11-20T15:48:42;15.57;;;7.83;;
19002;SDS011;9634;51.040;13.794;2022-11-20T15:53:45;16.13;;;7.67;;
19002;SDS011;9634;51.040;13.794;2022-11-20T15:58:49;18.17;;;8.50;;
19002;SDS011;9634;51.040;13.794;2022-11-20T16:03:51;20.43;;;8.47;;
19002;SDS011;9634;51.040;13.794;2022-11-20T16:08:53;16.73;;;8.50;;
19002;SDS011;9634;51.040;13.794;2022-11-20T16:13:57;18.67;;;8.70;;
19002;SDS011;9634;51.040;13.794;2022-11-20T16:19:16;17.53;;;8.10;;
19002;SDS011;9634;51.040;13.794;2022-11-20T16:24:19;18.27;;;9.03;;
19002;SDS011;9634;51.040;13.794;2022-11-20T16:29:22;19.27;;;9.37;;
19002;SDS011;9634;51.040;13.794;2022-11-20T16:34:25;27.40;;;12.87;;
19002;SDS011;9634;51.040;13.794;2022-11-20T16:39:27;23.90;;;11.67;;
19002;SDS011;9634;51.040;13.794;2022-11-20T16:44:31;23.90;;;12.13;;
19002;SDS011;9634;51.040;13.794;2022-11-20T16:49:34;28.63;;;12.83;;
19002;SDS011;9634;51.040;13.794;2022-11-20T16:54:36;26.07;;;11.90;;
19002;SDS011;9634;51.040;13.794;2022-11-20T16:59:39;29.73;;;12.53;;
19002;SDS011;9634;51.040;13.794;2022-11-20T17:04:42;25.17;;;11.97;;
19002;SDS011;9634;51.040;13.794;2022-11-20T17:09:44;30.00;;;12.53;;
19002;SDS011;9634;51.040;13.794;2022-11-20T17:14:48;26.70;;;13.23;;
19002;SDS011;9634;51.040;13.794;2022-11-20T17:19:50;28.50;;;13.53;;
19002;SDS011;9634;51.040;13.794;2022-11-20T17:24:53;30.77;;;14.03;;
19002;SDS011;9634;51.040;13.794;2022-11-20T17:29:56;30.63;;;13.70;;
19002;SDS011;9634;51.040;13.794;2022-11-20T17:34:59;26.67;;;12.97;;
19002;SDS011;9634;51.040;13.794;2022-11-20T17:40:01;27.80;;;13.67;;
19002;SDS011;9634;51.040;13.794;2022-11-20T17:45:05;27.30;;;13.03;;
19002;SDS011;9634;51.040;13.794;2022-11-20T17:50:08;32.77;;;13.60;;
19002;SDS011;9634;51.040;13.794;2022-11-20T17:55:10;31.23;;;13.40;;
19002;SDS011;9634;51.040;13.794;2022-11-20T18:00:15;30.00;;;14.17;;
19002;SDS011;9634;51.040;13.794;2022-11-20T18:05:25;27.83;;;13.50;;
19002;SDS011;9634;51.040;13.794;2022-11-20T18:10:27;30.17;;;14.60;;
19002;SDS011;9634;51.040;13.794;2022-11-20T18:15:31;29.57;;;12.43;;
19002;SDS011;9634;51.040;13.794;2022-11-20T18:20:33;27.67;;;12.30;;
19002;SDS011;9634;51.040;13.794;2022-11-20T18:25:35;27.47;;;13.50;;
19002;SDS011;9634;51.040;13.794;2022-11-20T18:30:40;27.77;;;13.17;;
19002;SDS011;9634;51.040;13.794;2022-11-20T18:35:42;29.30;;;13.37;;
19002;SDS011;9634;51.040;13.794;2022-11-20T18:40:44;26.27;;;12.47;;
19002;SDS011;9634;51.040;13.794;2022-11-20T18:45:48;25.30;;;11.97;;
19002;SDS011;9634;51.040;13.794;2022-11-20T18:50:51;28.47;;;13.83;;
19002;SDS011;9634;51.040;13.794;2022-11-20T18:55:54;31.23;;;13.17;;
19002;SDS011;9634;51.040;13.794;2022-11-20T19:01:04;31.03;;;15.40;;
19002;SDS011;9634;51.040;13.794;2022-11-20T19:06:11;30.10;;;13.97;;
19002;SDS011;9634;51.040;13.794;2022-11-20T19:11:13;29.90;;;14.67;;
19002;SDS011;9634;51.040;13.794;2022-11-20T19:16:18;33.40;;;15.63;;
19002;SDS011;9634;51.040;13.794;2022-11-20T19:21:22;34.47;;;15.33;;
19002;SDS011;9634;51.040;13.794;2022-11-20T19:26:25;34.10;;;16.20;;
19002;SDS011;9634;51.040;13.794;2022-11-20T19:31:29;35.67;;;17.33;;
19002;SDS011;9634;51.040;13.794;2022-11-20T19:36:32;37.10;;;18.00;;
19002;SDS011;9634;51.040;13.794;2022-11-20T19:41:35;34.93;;;17.33;;
19002;SDS011;9634;51.040;13.794;2022-11-20T19:46:40;33.07;;;16.70;;
19002;SDS011;9634;51.040;13.794;2022-11-20T19:51:44;37.03;;;16.57;;
19002;SDS011;9634;51.040;13.794;2022-11-20T19:56:47;28.80;;;14.83;;
19002;SDS011;9634;51.040;13.794;2022-11-20T20:01:51;32.87;;;16.33;;
19002;SDS011;9634;51.040;13.794;2022-11-20T20:06:53;30.43;;;14.77;;
19002;SDS011;9634;51.040;13.794;2022-11-20T20:11:55;27.47;;;14.47;;
19002;SDS011;9634;51.040;13.794;2022-11-20T20:16:59;32.17;;;14.73;;
19002;SDS011;9634;51.040;13.794;2022-11-20T20:22:01;33.47;;;15.50;;
19002;SDS011;9634;51.040;13.794;2022-11-20T20:27:03;29.27;;;14.23;;
19002;SDS011;9634;51.040;13.794;2022-11-20T20:32:07;30.73;;;14.30;;
19002;SDS011;9634;51.040;13.794;2022-11-20T20:37:09;35.07;;;16.23;;
19002;SDS011;9634;51.040;13.794;2022-11-20T20:42:11;34.53;;;15.13;;
19002;SDS011;9634;51.040;13.794;2022-11-20T20:47:15;34.20;;;15.27;;
19002;SDS011;9634;51.040;13.794;2022-11-20T20:52:17;33.97;;;14.53;;
19002;SDS011;9634;51.040;13.794;2022-11-20T20:57:20;34.83;;;15.07;;
19002;SDS011;9634;51.040;13.794;2022-11-20T21:02:26;34.33;;;13.33;;
19002;SDS011;9634;51.040;13.794;2022-11-20T21:07:28;38.43;;;14.03;;
19002;SDS011;9634;51.040;13.794;2022-11-20T21:12:30;31.27;;;13.67;;
19002;SDS011;9634;51.040;13.794;2022-11-20T21:17:34;34.87;;;14.03;;
19002;SDS011;9634;51.040;13.794;2022-11-20T21:22:36;31.83;;;13.37;;
19002;SDS011;9634;51.040;13.794;2022-11-20T21:27:38;34.63;;;14.10;;
19002;SDS011;9634;51.040;13.794;2022-11-20T21:32:42;32.40;;;13.37;;
19002;SDS011;9634;51.040;13.794;2022-11-20T21:37:44;33.73;;;14.27;;
19002;SDS011;9634;51.040;13.794;2022-11-20T21:42:46;37.53;;;14.87;;
19002;SDS011;9634;51.040;13.794;2022-11-20T21:47:50;32.47;;;14.47;;
19002;SDS011;9634;51.040;13.794;2022-11-20T21:52:52;34.70;;;14.73;;
19002;SDS011;9634;51.040;13.794;2022-11-20T21:57:54;37.60;;;15.97;;
19002;SDS011;9634;51.040;13.794;2022-11-20T22:02:58;31.90;;;14.00;;
19002;SDS011;9634;51.040;13.794;2022-11-20T22:08:00;32.80;;;13.23;;
19002;SDS011;9634;51.040;13.794;2022-11-20T22:13:04;31.97;;;13.67;;
19002;SDS011;9634;51.040;13.794;2022-11-20T22:18:25;30.10;;;13.10;;
19002;SDS011;9634;51.040;13.794;2022-11-20T22:23:27;34.93;;;13.73;;
19002;SDS011;9634;51.040;13.794;2022-11-20T22:28:30;35.67;;;14.33;;
19002;SDS011;9634;51.040;13.794;2022-11-20T22:33:34;33.50;;;13.97;;
19002;SDS011;9634;51.040;13.794;2022-11-20T22:38:38;29.50;;;13.30;;
19002;SDS011;9634;51.040;13.794;2022-11-20T22:43:40;36.37;;;14.53;;
19002;SDS011;9634;51.040;13.794;2022-11-20T22:48:50;35.50;;;14.57;;
19002;SDS011;9634;51.040;13.794;2022-11-20T22:53:54;37.67;;;15.10;;
19002;SDS011;9634;51.040;13.794;2022-11-20T22:58:56;40.60;;;16.33;;
19002;SDS011;9634;51.040;13.794;2022-11-20T23:04:01;39.20;;;15.67;;
19002;SDS011;9634;51.040;13.794;2022-11-20T23:09:05;40.63;;;16.47;;
19002;SDS011;9634;51.040;13.794;2022-11-20T23:14:10;40.00;;;16.90;;
19002;SDS011;9634;51.040;13.794;2022-11-20T23:19:15;40.37;;;16.93;;
19002;SDS011;9634;51.040;13.794;2022-11-20T23:24:18;39.87;;;16.83;;
19002;SDS011;9634;51.040;13.794;2022-11-20T23:29:20;47.90;;;19.20;;
19002;SDS011;9634;51.040;13.794;2022-11-20T23:34:24;44.73;;;19.03;;
19002;SDS011;9634;51.040;13.794;2022-11-20T23:39:26;53.57;;;19.87;;
19002;SDS011;9634;51.040;13.794;2022-11-20T23:44:31;46.37;;;19.80;;
19002;SDS011;9634;51.040;13.794;2022-11-20T23:49:35;49.67;;;20.73;;
19002;SDS011;9634;51.040;13.794;2022-11-20T23:54:40;50.23;;;19.03;;
19002;SDS011;9634;51.040;13.794;2022-11-20T23:59:42;52.27;;;21.17;;
